sensor_id;sensor_type;location;lat;lon;timestamp;P1;durP1;ratioP1;P2;durP2;ratioP2
9306;SDS011;4691;47.612;7.610;2023-03-23T00:00:22;12.38;;;7.57;;
9306;SDS011;4691;47.612;7.610;2023-03-23T00:02:47;13.10;;;7.60;;
9306;SDS011;4691;47.612;7.610;2023-03-23T00:05:12;13.70;;;8.00;;
9306;SDS011;4691;47.612;7.610;2023-03-23T00:07:37;15.47;;;7.63;;
9306;SDS011;4691;47.612;7.610;2023-03-23T00:10:02;13.57;;;7.50;;
9306;SDS011;4691;47.612;7.610;2023-03-23T00:12:28;15.32;;;8.45;;
9306;SDS011;4691;47.612;7.610;2023-03-23T00:14:58;12.30;;;7.28;;
9306;SDS011;4691;47.612;7.610;2023-03-23T00:17:23;11.23;;;7.38;;
9306;SDS011;4691;47.612;7.610;2023-03-23T00:19:49;14.60;;;7.13;;
9306;SDS011;4691;47.612;7.610;2023-03-23T00:22:15;11.87;;;6.97;;
9306;SDS011;4691;47.612;7.610;2023-03-23T00:24:41;16.88;;;7.60;;
9306;SDS011;4691;47.612;7.610;2023-03-23T00:27:07;11.68;;;6.07;;
9306;SDS011;4691;47.612;7.610;2023-03-23T00:29:34;11.82;;;7.00;;
9306;SDS011;4691;47.612;7.610;2023-03-23T00:31:59;10.55;;;6.97;;
9306;SDS011;4691;47.612;7.610;2023-03-23T00:34:24;11.00;;;6.50;;
9306;SDS011;4691;47.612;7.610;2023-03-23T00:36:52;13.67;;;6.67;;
9306;SDS011;4691;47.612;7.610;2023-03-23T00:39:21;10.05;;;6.45;;
9306;SDS011;4691;47.612;7.610;2023-03-23T00:41:49;11.68;;;6.38;;
9306;SDS011;4691;47.612;7.610;2023-03-23T00:44:14;10.35;;;5.85;;
9306;SDS011;4691;47.612;7.610;2023-03-23T00:46:47;14.80;;;6.25;;
9306;SDS011;4691;47.612;7.610;2023-03-23T00:49:14;9.40;;;6.13;;
9306;SDS011;4691;47.612;7.610;2023-03-23T00:51:40;12.18;;;6.50;;
9306;SDS011;4691;47.612;7.610;2023-03-23T00:54:05;10.93;;;5.75;;
9306;SDS011;4691;47.612;7.610;2023-03-23T00:56:31;10.90;;;5.65;;
9306;SDS011;4691;47.612;7.610;2023-03-23T00:58:56;11.48;;;5.50;;
9306;SDS011;4691;47.612;7.610;2023-03-23T01:01:21;13.33;;;5.43;;
9306;SDS011;4691;47.612;7.610;2023-03-23T01:03:46;10.85;;;5.47;;
9306;SDS011;4691;47.612;7.610;2023-03-23T01:06:12;9.77;;;5.35;;
9306;SDS011;4691;47.612;7.610;2023-03-23T01:08:40;11.23;;;5.60;;
9306;SDS011;4691;47.612;7.610;2023-03-23T01:13:35;8.93;;;5.57;;
9306;SDS011;4691;47.612;7.610;2023-03-23T01:16:01;14.30;;;6.22;;
9306;SDS011;4691;47.612;7.610;2023-03-23T01:18:26;11.65;;;5.00;;
9306;SDS011;4691;47.612;7.610;2023-03-23T01:20:51;10.73;;;5.23;;
9306;SDS011;4691;47.612;7.610;2023-03-23T01:23:17;8.33;;;5.13;;
9306;SDS011;4691;47.612;7.610;2023-03-23T01:25:42;8.77;;;5.20;;
9306;SDS011;4691;47.612;7.610;2023-03-23T01:28:08;11.57;;;4.53;;
9306;SDS011;4691;47.612;7.610;2023-03-23T01:30:35;7.82;;;4.63;;
9306;SDS011;4691;47.612;7.610;2023-03-23T01:33:00;9.07;;;4.57;;
9306;SDS011;4691;47.612;7.610;2023-03-23T01:35:25;8.20;;;4.03;;
9306;SDS011;4691;47.612;7.610;2023-03-23T01:37:50;7.73;;;4.00;;
9306;SDS011;4691;47.612;7.610;2023-03-23T01:40:16;9.13;;;3.83;;
9306;SDS011;4691;47.612;7.610;2023-03-23T01:42:41;7.67;;;3.93;;
9306;SDS011;4691;47.612;7.610;2023-03-23T01:45:17;7.63;;;3.50;;
9306;SDS011;4691;47.612;7.610;2023-03-23T01:47:46;6.22;;;3.00;;
9306;SDS011;4691;47.612;7.610;2023-03-23T01:50:11;5.70;;;3.15;;
9306;SDS011;4691;47.612;7.610;2023-03-23T01:52:36;5.13;;;2.80;;
9306;SDS011;4691;47.612;7.610;2023-03-23T01:55:02;6.45;;;3.30;;
9306;SDS011;4691;47.612;7.610;2023-03-23T01:57:28;6.40;;;3.20;;
9306;SDS011;4691;47.612;7.610;2023-03-23T01:59:55;5.20;;;3.20;;
9306;SDS011;4691;47.612;7.610;2023-03-23T02:02:23;7.53;;;3.78;;
9306;SDS011;4691;47.612;7.610;2023-03-23T02:04:49;5.82;;;3.78;;
9306;SDS011;4691;47.612;7.610;2023-03-23T02:07:16;8.10;;;3.92;;
9306;SDS011;4691;47.612;7.610;2023-03-23T02:09:42;7.25;;;4.55;;
9306;SDS011;4691;47.612;7.610;2023-03-23T02:12:07;11.63;;;5.60;;
9306;SDS011;4691;47.612;7.610;2023-03-23T02:14:33;10.57;;;5.40;;
9306;SDS011;4691;47.612;7.610;2023-03-23T02:17:00;9.67;;;5.17;;
9306;SDS011;4691;47.612;7.610;2023-03-23T02:22:12;8.30;;;5.18;;
9306;SDS011;4691;47.612;7.610;2023-03-23T02:27:11;10.98;;;5.28;;
9306;SDS011;4691;47.612;7.610;2023-03-23T02:29:46;8.65;;;5.10;;
9306;SDS011;4691;47.612;7.610;2023-03-23T02:32:24;12.75;;;5.47;;
9306;SDS011;4691;47.612;7.610;2023-03-23T02:34:59;10.98;;;4.72;;
9306;SDS011;4691;47.612;7.610;2023-03-23T02:37:28;9.48;;;4.50;;
9306;SDS011;4691;47.612;7.610;2023-03-23T02:39:59;8.15;;;4.63;;
9306;SDS011;4691;47.612;7.610;2023-03-23T02:42:31;10.35;;;4.88;;
9306;SDS011;4691;47.612;7.610;2023-03-23T02:44:58;8.52;;;4.82;;
9306;SDS011;4691;47.612;7.610;2023-03-23T02:47:24;10.73;;;4.93;;
9306;SDS011;4691;47.612;7.610;2023-03-23T02:49:51;8.60;;;4.78;;
9306;SDS011;4691;47.612;7.610;2023-03-23T02:52:18;9.32;;;5.68;;
9306;SDS011;4691;47.612;7.610;2023-03-23T02:54:44;11.68;;;5.20;;
9306;SDS011;4691;47.612;7.610;2023-03-23T02:57:10;8.60;;;5.07;;
9306;SDS011;4691;47.612;7.610;2023-03-23T02:59:36;10.57;;;5.35;;
9306;SDS011;4691;47.612;7.610;2023-03-23T03:02:05;10.10;;;5.23;;
9306;SDS011;4691;47.612;7.610;2023-03-23T03:04:31;7.35;;;4.47;;
9306;SDS011;4691;47.612;7.610;2023-03-23T03:09:49;7.03;;;3.85;;
9306;SDS011;4691;47.612;7.610;2023-03-23T03:14:49;9.68;;;5.40;;
9306;SDS011;4691;47.612;7.610;2023-03-23T03:19:32;12.05;;;5.18;;
9306;SDS011;4691;47.612;7.610;2023-03-23T03:22:00;10.25;;;5.50;;
9306;SDS011;4691;47.612;7.610;2023-03-23T03:24:26;11.63;;;4.78;;
9306;SDS011;4691;47.612;7.610;2023-03-23T03:26:53;9.27;;;4.80;;
9306;SDS011;4691;47.612;7.610;2023-03-23T03:29:24;7.90;;;4.75;;
9306;SDS011;4691;47.612;7.610;2023-03-23T03:31:50;8.98;;;4.65;;
9306;SDS011;4691;47.612;7.610;2023-03-23T03:34:16;7.00;;;3.42;;
9306;SDS011;4691;47.612;7.610;2023-03-23T03:36:43;7.07;;;3.22;;
9306;SDS011;4691;47.612;7.610;2023-03-23T03:39:09;4.55;;;3.22;;
9306;SDS011;4691;47.612;7.610;2023-03-23T03:41:35;7.18;;;3.53;;
9306;SDS011;4691;47.612;7.610;2023-03-23T03:44:01;5.20;;;3.13;;
9306;SDS011;4691;47.612;7.610;2023-03-23T03:46:26;7.35;;;3.47;;
9306;SDS011;4691;47.612;7.610;2023-03-23T03:48:54;5.05;;;3.60;;
9306;SDS011;4691;47.612;7.610;2023-03-23T03:51:21;5.03;;;3.10;;
9306;SDS011;4691;47.612;7.610;2023-03-23T03:53:46;5.57;;;3.50;;
9306;SDS011;4691;47.612;7.610;2023-03-23T03:56:11;4.80;;;3.40;;
9306;SDS011;4691;47.612;7.610;2023-03-23T03:58:38;5.95;;;3.05;;
9306;SDS011;4691;47.612;7.610;2023-03-23T04:01:03;6.05;;;3.33;;
9306;SDS011;4691;47.612;7.610;2023-03-23T04:03:29;6.82;;;3.33;;
9306;SDS011;4691;47.612;7.610;2023-03-23T04:05:54;6.33;;;3.27;;
9306;SDS011;4691;47.612;7.610;2023-03-23T04:08:24;6.80;;;3.58;;
9306;SDS011;4691;47.612;7.610;2023-03-23T04:10:51;6.18;;;3.40;;
9306;SDS011;4691;47.612;7.610;2023-03-23T04:13:17;7.32;;;4.13;;
9306;SDS011;4691;47.612;7.610;2023-03-23T04:15:43;5.57;;;3.95;;
9306;SDS011;4691;47.612;7.610;2023-03-23T04:18:08;6.35;;;4.40;;
9306;SDS011;4691;47.612;7.610;2023-03-23T04:20:34;12.00;;;4.73;;
9306;SDS011;4691;47.612;7.610;2023-03-23T04:23:00;7.35;;;4.60;;
9306;SDS011;4691;47.612;7.610;2023-03-23T04:25:25;8.05;;;5.00;;
9306;SDS011;4691;47.612;7.610;2023-03-23T04:27:51;7.40;;;5.07;;
9306;SDS011;4691;47.612;7.610;2023-03-23T04:30:20;8.25;;;4.82;;
9306;SDS011;4691;47.612;7.610;2023-03-23T04:32:46;9.70;;;4.90;;
9306;SDS011;4691;47.612;7.610;2023-03-23T04:35:15;9.90;;;5.25;;
9306;SDS011;4691;47.612;7.610;2023-03-23T04:37:41;13.13;;;5.22;;
9306;SDS011;4691;47.612;7.610;2023-03-23T04:40:08;11.63;;;5.63;;
9306;SDS011;4691;47.612;7.610;2023-03-23T04:42:38;8.80;;;5.10;;
9306;SDS011;4691;47.612;7.610;2023-03-23T04:45:03;6.28;;;4.78;;
9306;SDS011;4691;47.612;7.610;2023-03-23T04:47:31;9.35;;;5.30;;
9306;SDS011;4691;47.612;7.610;2023-03-23T04:49:57;10.20;;;5.78;;
9306;SDS011;4691;47.612;7.610;2023-03-23T04:52:27;9.98;;;5.38;;
9306;SDS011;4691;47.612;7.610;2023-03-23T04:54:53;9.88;;;5.40;;
9306;SDS011;4691;47.612;7.610;2023-03-23T04:57:18;12.00;;;5.85;;
9306;SDS011;4691;47.612;7.610;2023-03-23T04:59:44;9.75;;;5.80;;
9306;SDS011;4691;47.612;7.610;2023-03-23T05:02:12;8.73;;;5.65;;
9306;SDS011;4691;47.612;7.610;2023-03-23T05:04:44;10.82;;;5.60;;
9306;SDS011;4691;47.612;7.610;2023-03-23T05:07:10;10.38;;;5.43;;
9306;SDS011;4691;47.612;7.610;2023-03-23T05:09:35;10.73;;;5.70;;
9306;SDS011;4691;47.612;7.610;2023-03-23T05:12:04;12.82;;;6.18;;
9306;SDS011;4691;47.612;7.610;2023-03-23T05:14:30;14.70;;;5.55;;
9306;SDS011;4691;47.612;7.610;2023-03-23T05:16:55;9.13;;;5.60;;
9306;SDS011;4691;47.612;7.610;2023-03-23T05:19:21;13.80;;;6.15;;
9306;SDS011;4691;47.612;7.610;2023-03-23T05:21:46;9.13;;;5.97;;
9306;SDS011;4691;47.612;7.610;2023-03-23T05:24:11;9.77;;;5.83;;
9306;SDS011;4691;47.612;7.610;2023-03-23T05:26:37;11.88;;;5.68;;
9306;SDS011;4691;47.612;7.610;2023-03-23T05:29:02;15.03;;;5.63;;
9306;SDS011;4691;47.612;7.610;2023-03-23T05:31:28;11.43;;;6.03;;
9306;SDS011;4691;47.612;7.610;2023-03-23T05:33:53;13.20;;;6.43;;
9306;SDS011;4691;47.612;7.610;2023-03-23T05:36:18;14.07;;;6.50;;
9306;SDS011;4691;47.612;7.610;2023-03-23T05:38:43;12.17;;;6.70;;
9306;SDS011;4691;47.612;7.610;2023-03-23T05:41:12;11.02;;;5.45;;
9306;SDS011;4691;47.612;7.610;2023-03-23T05:43:38;11.35;;;6.32;;
9306;SDS011;4691;47.612;7.610;2023-03-23T05:46:03;10.30;;;5.30;;
9306;SDS011;4691;47.612;7.610;2023-03-23T05:48:28;10.23;;;5.65;;
9306;SDS011;4691;47.612;7.610;2023-03-23T05:50:54;8.73;;;5.07;;
9306;SDS011;4691;47.612;7.610;2023-03-23T05:53:19;12.90;;;5.30;;
9306;SDS011;4691;47.612;7.610;2023-03-23T05:55:45;11.23;;;5.77;;
9306;SDS011;4691;47.612;7.610;2023-03-23T05:58:10;15.13;;;8.23;;
9306;SDS011;4691;47.612;7.610;2023-03-23T06:00:35;9.70;;;6.57;;
9306;SDS011;4691;47.612;7.610;2023-03-23T06:03:01;11.55;;;5.47;;
9306;SDS011;4691;47.612;7.610;2023-03-23T06:05:26;10.23;;;5.60;;
9306;SDS011;4691;47.612;7.610;2023-03-23T06:07:51;8.85;;;5.07;;
9306;SDS011;4691;47.612;7.610;2023-03-23T06:10:17;9.02;;;5.40;;
9306;SDS011;4691;47.612;7.610;2023-03-23T06:12:42;9.90;;;4.90;;
9306;SDS011;4691;47.612;7.610;2023-03-23T06:15:08;9.75;;;5.03;;
9306;SDS011;4691;47.612;7.610;2023-03-23T06:17:34;11.68;;;5.38;;
9306;SDS011;4691;47.612;7.610;2023-03-23T06:20:01;9.13;;;4.43;;
9306;SDS011;4691;47.612;7.610;2023-03-23T06:22:29;11.40;;;4.40;;
9306;SDS011;4691;47.612;7.610;2023-03-23T06:24:54;15.35;;;4.90;;
9306;SDS011;4691;47.612;7.610;2023-03-23T06:27:21;12.57;;;5.90;;
9306;SDS011;4691;47.612;7.610;2023-03-23T06:29:47;13.83;;;6.30;;
9306;SDS011;4691;47.612;7.610;2023-03-23T06:32:13;14.95;;;5.90;;
9306;SDS011;4691;47.612;7.610;2023-03-23T06:34:38;17.67;;;7.20;;
9306;SDS011;4691;47.612;7.610;2023-03-23T06:37:05;15.75;;;5.90;;
9306;SDS011;4691;47.612;7.610;2023-03-23T06:39:30;13.52;;;6.13;;
9306;SDS011;4691;47.612;7.610;2023-03-23T06:41:56;11.50;;;5.77;;
9306;SDS011;4691;47.612;7.610;2023-03-23T06:44:21;15.07;;;5.80;;
9306;SDS011;4691;47.612;7.610;2023-03-23T06:46:46;13.27;;;5.90;;
9306;SDS011;4691;47.612;7.610;2023-03-23T06:49:13;13.30;;;5.72;;
9306;SDS011;4691;47.612;7.610;2023-03-23T06:51:38;10.40;;;5.77;;
9306;SDS011;4691;47.612;7.610;2023-03-23T06:54:04;8.37;;;5.40;;
9306;SDS011;4691;47.612;7.610;2023-03-23T06:56:29;11.93;;;5.40;;
9306;SDS011;4691;47.612;7.610;2023-03-23T06:58:55;188.57;;;19.98;;
9306;SDS011;4691;47.612;7.610;2023-03-23T07:01:20;312.85;;;24.33;;
9306;SDS011;4691;47.612;7.610;2023-03-23T07:03:45;113.70;;;15.30;;
9306;SDS011;4691;47.612;7.610;2023-03-23T07:06:11;122.20;;;14.27;;
9306;SDS011;4691;47.612;7.610;2023-03-23T07:08:36;32.00;;;7.60;;
9306;SDS011;4691;47.612;7.610;2023-03-23T07:11:01;56.22;;;10.23;;
9306;SDS011;4691;47.612;7.610;2023-03-23T07:13:27;44.85;;;8.38;;
9306;SDS011;4691;47.612;7.610;2023-03-23T07:15:52;19.45;;;8.02;;
9306;SDS011;4691;47.612;7.610;2023-03-23T07:18:18;13.93;;;5.97;;
9306;SDS011;4691;47.612;7.610;2023-03-23T07:20:46;10.07;;;5.82;;
9306;SDS011;4691;47.612;7.610;2023-03-23T07:23:11;17.17;;;5.80;;
9306;SDS011;4691;47.612;7.610;2023-03-23T07:25:37;18.20;;;6.37;;
9306;SDS011;4691;47.612;7.610;2023-03-23T07:28:02;19.85;;;5.50;;
9306;SDS011;4691;47.612;7.610;2023-03-23T07:30:28;15.68;;;5.55;;
9306;SDS011;4691;47.612;7.610;2023-03-23T07:32:57;11.07;;;4.97;;
9306;SDS011;4691;47.612;7.610;2023-03-23T07:35:22;7.78;;;3.92;;
9306;SDS011;4691;47.612;7.610;2023-03-23T07:37:47;8.38;;;4.30;;
9306;SDS011;4691;47.612;7.610;2023-03-23T07:40:14;27.42;;;6.13;;
9306;SDS011;4691;47.612;7.610;2023-03-23T07:42:42;8.77;;;4.40;;
9306;SDS011;4691;47.612;7.610;2023-03-23T07:45:08;10.15;;;4.60;;
9306;SDS011;4691;47.612;7.610;2023-03-23T07:47:34;20.55;;;6.00;;
9306;SDS011;4691;47.612;7.610;2023-03-23T07:49:59;21.17;;;5.72;;
9306;SDS011;4691;47.612;7.610;2023-03-23T07:52:25;16.83;;;5.55;;
9306;SDS011;4691;47.612;7.610;2023-03-23T07:54:50;13.07;;;5.50;;
9306;SDS011;4691;47.612;7.610;2023-03-23T07:57:15;15.55;;;5.30;;
9306;SDS011;4691;47.612;7.610;2023-03-23T07:59:41;7.47;;;4.20;;
9306;SDS011;4691;47.612;7.610;2023-03-23T08:02:07;11.40;;;5.27;;
9306;SDS011;4691;47.612;7.610;2023-03-23T08:04:32;14.13;;;4.50;;
9306;SDS011;4691;47.612;7.610;2023-03-23T08:07:01;12.77;;;4.72;;
9306;SDS011;4691;47.612;7.610;2023-03-23T08:09:27;12.03;;;4.83;;
9306;SDS011;4691;47.612;7.610;2023-03-23T08:11:52;9.18;;;5.00;;
9306;SDS011;4691;47.612;7.610;2023-03-23T08:14:17;10.60;;;4.95;;
9306;SDS011;4691;47.612;7.610;2023-03-23T08:16:43;12.38;;;5.15;;
9306;SDS011;4691;47.612;7.610;2023-03-23T08:19:08;9.47;;;5.23;;
9306;SDS011;4691;47.612;7.610;2023-03-23T08:21:33;10.73;;;5.20;;
9306;SDS011;4691;47.612;7.610;2023-03-23T08:23:59;11.25;;;5.85;;
9306;SDS011;4691;47.612;7.610;2023-03-23T08:26:26;9.30;;;5.10;;
9306;SDS011;4691;47.612;7.610;2023-03-23T08:28:51;8.63;;;4.80;;
9306;SDS011;4691;47.612;7.610;2023-03-23T08:31:16;9.80;;;5.10;;
9306;SDS011;4691;47.612;7.610;2023-03-23T08:33:42;15.32;;;6.05;;
9306;SDS011;4691;47.612;7.610;2023-03-23T08:36:07;10.02;;;5.43;;
9306;SDS011;4691;47.612;7.610;2023-03-23T08:38:33;14.85;;;6.68;;
9306;SDS011;4691;47.612;7.610;2023-03-23T08:41:00;13.40;;;7.45;;
9306;SDS011;4691;47.612;7.610;2023-03-23T08:43:26;15.27;;;6.55;;
9306;SDS011;4691;47.612;7.610;2023-03-23T08:45:52;10.85;;;5.82;;
9306;SDS011;4691;47.612;7.610;2023-03-23T08:48:17;11.80;;;5.00;;
9306;SDS011;4691;47.612;7.610;2023-03-23T08:50:42;10.90;;;5.53;;
9306;SDS011;4691;47.612;7.610;2023-03-23T08:53:08;13.10;;;5.53;;
9306;SDS011;4691;47.612;7.610;2023-03-23T08:55:33;15.57;;;7.70;;
9306;SDS011;4691;47.612;7.610;2023-03-23T08:57:58;15.17;;;7.87;;
9306;SDS011;4691;47.612;7.610;2023-03-23T09:00:23;15.57;;;7.67;;
9306;SDS011;4691;47.612;7.610;2023-03-23T09:02:51;10.35;;;6.70;;
9306;SDS011;4691;47.612;7.610;2023-03-23T09:05:18;9.77;;;5.60;;
9306;SDS011;4691;47.612;7.610;2023-03-23T09:07:45;10.05;;;4.78;;
9306;SDS011;4691;47.612;7.610;2023-03-23T09:10:11;8.82;;;4.32;;
9306;SDS011;4691;47.612;7.610;2023-03-23T09:12:37;8.52;;;4.97;;
9306;SDS011;4691;47.612;7.610;2023-03-23T09:15:03;7.13;;;4.70;;
9306;SDS011;4691;47.612;7.610;2023-03-23T09:17:33;6.50;;;4.80;;
9306;SDS011;4691;47.612;7.610;2023-03-23T09:19:58;9.43;;;4.45;;
9306;SDS011;4691;47.612;7.610;2023-03-23T09:22:23;7.68;;;4.38;;
9306;SDS011;4691;47.612;7.610;2023-03-23T09:24:49;5.90;;;4.10;;
9306;SDS011;4691;47.612;7.610;2023-03-23T09:27:15;5.38;;;3.78;;
9306;SDS011;4691;47.612;7.610;2023-03-23T09:29:41;5.75;;;3.45;;
9306;SDS011;4691;47.612;7.610;2023-03-23T09:32:06;7.22;;;3.67;;
9306;SDS011;4691;47.612;7.610;2023-03-23T09:34:32;5.45;;;3.50;;
9306;SDS011;4691;47.612;7.610;2023-03-23T09:37:00;5.65;;;3.75;;
9306;SDS011;4691;47.612;7.610;2023-03-23T09:39:29;5.07;;;3.33;;
9306;SDS011;4691;47.612;7.610;2023-03-23T09:51:53;5.00;;;2.97;;
9306;SDS011;4691;47.612;7.610;2023-03-23T09:54:35;9.57;;;3.38;;
9306;SDS011;4691;47.612;7.610;2023-03-23T09:57:01;6.93;;;2.92;;
9306;SDS011;4691;47.612;7.610;2023-03-23T09:59:31;6.07;;;3.55;;
9306;SDS011;4691;47.612;7.610;2023-03-23T10:02:02;11.02;;;4.53;;
9306;SDS011;4691;47.612;7.610;2023-03-23T10:07:39;8.05;;;4.07;;
9306;SDS011;4691;47.612;7.610;2023-03-23T10:09:46;5.90;;;3.85;;
9306;SDS011;4691;47.612;7.610;2023-03-23T10:12:16;6.93;;;3.90;;
9306;SDS011;4691;47.612;7.610;2023-03-23T10:17:17;9.53;;;4.00;;
9306;SDS011;4691;47.612;7.610;2023-03-23T10:19:55;8.95;;;3.90;;
9306;SDS011;4691;47.612;7.610;2023-03-23T10:22:26;10.35;;;4.00;;
9306;SDS011;4691;47.612;7.610;2023-03-23T10:24:57;8.77;;;3.92;;
9306;SDS011;4691;47.612;7.610;2023-03-23T10:29:52;9.80;;;4.15;;
9306;SDS011;4691;47.612;7.610;2023-03-23T10:32:34;8.18;;;3.95;;
9306;SDS011;4691;47.612;7.610;2023-03-23T10:35:02;11.05;;;4.63;;
9306;SDS011;4691;47.612;7.610;2023-03-23T10:37:30;6.50;;;4.07;;
9306;SDS011;4691;47.612;7.610;2023-03-23T10:39:57;6.97;;;3.47;;
9306;SDS011;4691;47.612;7.610;2023-03-23T10:44:53;8.20;;;4.32;;
9306;SDS011;4691;47.612;7.610;2023-03-23T10:47:18;8.68;;;3.67;;
9306;SDS011;4691;47.612;7.610;2023-03-23T10:49:45;6.20;;;3.60;;
9306;SDS011;4691;47.612;7.610;2023-03-23T10:52:23;9.82;;;4.25;;
9306;SDS011;4691;47.612;7.610;2023-03-23T10:54:54;5.68;;;3.50;;
9306;SDS011;4691;47.612;7.610;2023-03-23T10:57:21;7.07;;;3.55;;
9306;SDS011;4691;47.612;7.610;2023-03-23T10:59:47;5.55;;;3.67;;
9306;SDS011;4691;47.612;7.610;2023-03-23T11:02:18;10.10;;;3.40;;
9306;SDS011;4691;47.612;7.610;2023-03-23T11:04:46;5.80;;;3.42;;
9306;SDS011;4691;47.612;7.610;2023-03-23T11:07:13;7.07;;;3.20;;
9306;SDS011;4691;47.612;7.610;2023-03-23T11:09:51;7.25;;;3.60;;
9306;SDS011;4691;47.612;7.610;2023-03-23T11:12:17;5.97;;;3.58;;
9306;SDS011;4691;47.612;7.610;2023-03-23T11:14:43;7.63;;;4.13;;
9306;SDS011;4691;47.612;7.610;2023-03-23T11:17:25;10.13;;;4.30;;
9306;SDS011;4691;47.612;7.610;2023-03-23T11:19:51;5.97;;;3.78;;
9306;SDS011;4691;47.612;7.610;2023-03-23T11:22:32;6.72;;;3.38;;
9306;SDS011;4691;47.612;7.610;2023-03-23T11:25:01;11.77;;;3.97;;
9306;SDS011;4691;47.612;7.610;2023-03-23T11:27:28;6.93;;;3.55;;
9306;SDS011;4691;47.612;7.610;2023-03-23T11:29:54;6.95;;;2.92;;
9306;SDS011;4691;47.612;7.610;2023-03-23T11:32:28;5.03;;;3.25;;
9306;SDS011;4691;47.612;7.610;2023-03-23T11:34:57;6.72;;;3.13;;
9306;SDS011;4691;47.612;7.610;2023-03-23T11:40:02;3.58;;;2.88;;
9306;SDS011;4691;47.612;7.610;2023-03-23T11:42:47;4.68;;;2.90;;
9306;SDS011;4691;47.612;7.610;2023-03-23T11:50:20;5.00;;;2.40;;
9306;SDS011;4691;47.612;7.610;2023-03-23T11:52:52;6.78;;;2.60;;
9306;SDS011;4691;47.612;7.610;2023-03-23T11:55:20;6.82;;;2.70;;
9306;SDS011;4691;47.612;7.610;2023-03-23T11:57:47;3.22;;;2.15;;
9306;SDS011;4691;47.612;7.610;2023-03-23T12:00:17;3.97;;;2.40;;
9306;SDS011;4691;47.612;7.610;2023-03-23T12:02:57;15.05;;;7.80;;
9306;SDS011;4691;47.612;7.610;2023-03-23T12:08:05;3.60;;;2.20;;
9306;SDS011;4691;47.612;7.610;2023-03-23T12:18:58;6.18;;;2.80;;
9306;SDS011;4691;47.612;7.610;2023-03-23T12:44:26;5.07;;;2.83;;
9306;SDS011;4691;47.612;7.610;2023-03-23T12:47:15;3.67;;;2.47;;
9306;SDS011;4691;47.612;7.610;2023-03-23T12:49:50;8.75;;;3.35;;
9306;SDS011;4691;47.612;7.610;2023-03-23T12:52:20;3.92;;;2.53;;
9306;SDS011;4691;47.612;7.610;2023-03-23T13:00:48;4.90;;;2.47;;
9306;SDS011;4691;47.612;7.610;2023-03-23T13:07:59;9.23;;;3.08;;
9306;SDS011;4691;47.612;7.610;2023-03-23T13:10:33;6.68;;;3.05;;
9306;SDS011;4691;47.612;7.610;2023-03-23T13:13:00;6.60;;;2.70;;
9306;SDS011;4691;47.612;7.610;2023-03-23T13:15:34;5.32;;;2.58;;
9306;SDS011;4691;47.612;7.610;2023-03-23T13:20:39;4.00;;;2.70;;
9306;SDS011;4691;47.612;7.610;2023-03-23T13:23:22;7.35;;;2.63;;
9306;SDS011;4691;47.612;7.610;2023-03-23T13:28:23;7.15;;;2.90;;
9306;SDS011;4691;47.612;7.610;2023-03-23T13:33:25;4.90;;;2.70;;
9306;SDS011;4691;47.612;7.610;2023-03-23T13:35:50;6.05;;;3.00;;
9306;SDS011;4691;47.612;7.610;2023-03-23T13:40:44;5.30;;;2.80;;
9306;SDS011;4691;47.612;7.610;2023-03-23T13:43:09;4.72;;;2.63;;
9306;SDS011;4691;47.612;7.610;2023-03-23T13:45:41;4.18;;;2.80;;
9306;SDS011;4691;47.612;7.610;2023-03-23T13:50:44;4.20;;;2.72;;
9306;SDS011;4691;47.612;7.610;2023-03-23T13:53:13;9.77;;;2.90;;
9306;SDS011;4691;47.612;7.610;2023-03-23T13:55:40;6.18;;;2.58;;
9306;SDS011;4691;47.612;7.610;2023-03-23T14:05:41;4.97;;;2.95;;
9306;SDS011;4691;47.612;7.610;2023-03-23T14:08:24;6.68;;;3.30;;
9306;SDS011;4691;47.612;7.610;2023-03-23T14:10:51;5.50;;;2.70;;
9306;SDS011;4691;47.612;7.610;2023-03-23T14:13:28;4.13;;;2.50;;
9306;SDS011;4691;47.612;7.610;2023-03-23T14:15:59;3.67;;;2.60;;
9306;SDS011;4691;47.612;7.610;2023-03-23T14:18:27;4.75;;;2.72;;
9306;SDS011;4691;47.612;7.610;2023-03-23T14:20:54;4.35;;;2.65;;
9306;SDS011;4691;47.612;7.610;2023-03-23T14:23:20;5.28;;;2.65;;
9306;SDS011;4691;47.612;7.610;2023-03-23T14:25:58;5.18;;;3.03;;
9306;SDS011;4691;47.612;7.610;2023-03-23T14:28:30;6.18;;;3.10;;
9306;SDS011;4691;47.612;7.610;2023-03-23T14:30:55;6.03;;;2.47;;
9306;SDS011;4691;47.612;7.610;2023-03-23T14:33:22;4.05;;;2.75;;
9306;SDS011;4691;47.612;7.610;2023-03-23T14:35:47;5.50;;;2.97;;
9306;SDS011;4691;47.612;7.610;2023-03-23T14:38:16;4.75;;;3.30;;
9306;SDS011;4691;47.612;7.610;2023-03-23T14:40:43;5.95;;;3.28;;
9306;SDS011;4691;47.612;7.610;2023-03-23T14:43:09;7.57;;;4.50;;
9306;SDS011;4691;47.612;7.610;2023-03-23T14:45:36;5.90;;;3.90;;
9306;SDS011;4691;47.612;7.610;2023-03-23T14:48:03;10.02;;;5.30;;
9306;SDS011;4691;47.612;7.610;2023-03-23T14:50:38;10.75;;;5.13;;
9306;SDS011;4691;47.612;7.610;2023-03-23T14:53:16;7.50;;;4.70;;
9306;SDS011;4691;47.612;7.610;2023-03-23T14:55:42;7.05;;;3.55;;
9306;SDS011;4691;47.612;7.610;2023-03-23T14:58:08;5.78;;;3.75;;
9306;SDS011;4691;47.612;7.610;2023-03-23T15:00:39;5.25;;;3.40;;
9306;SDS011;4691;47.612;7.610;2023-03-23T15:03:05;7.47;;;3.30;;
9306;SDS011;4691;47.612;7.610;2023-03-23T15:05:34;4.70;;;3.40;;
9306;SDS011;4691;47.612;7.610;2023-03-23T15:08:46;6.65;;;3.10;;
9306;SDS011;4691;47.612;7.610;2023-03-23T15:10:53;7.63;;;2.90;;
9306;SDS011;4691;47.612;7.610;2023-03-23T15:13:19;5.10;;;3.35;;
9306;SDS011;4691;47.612;7.610;2023-03-23T15:15:44;6.88;;;3.25;;
9306;SDS011;4691;47.612;7.610;2023-03-23T15:18:19;4.45;;;3.33;;
9306;SDS011;4691;47.612;7.610;2023-03-23T15:20:48;6.43;;;3.42;;
9306;SDS011;4691;47.612;7.610;2023-03-23T15:23:17;6.20;;;3.47;;
9306;SDS011;4691;47.612;7.610;2023-03-23T15:25:50;6.43;;;3.60;;
9306;SDS011;4691;47.612;7.610;2023-03-23T15:30:54;5.72;;;3.80;;
9306;SDS011;4691;47.612;7.610;2023-03-23T15:33:21;7.20;;;3.88;;
9306;SDS011;4691;47.612;7.610;2023-03-23T15:35:51;8.13;;;3.70;;
9306;SDS011;4691;47.612;7.610;2023-03-23T15:38:21;7.13;;;3.90;;
9306;SDS011;4691;47.612;7.610;2023-03-23T15:40:49;21.23;;;8.93;;
9306;SDS011;4691;47.612;7.610;2023-03-23T15:43:18;11.77;;;5.80;;
9306;SDS011;4691;47.612;7.610;2023-03-23T15:45:56;13.77;;;5.68;;
9306;SDS011;4691;47.612;7.610;2023-03-23T15:48:25;14.93;;;6.63;;
9306;SDS011;4691;47.612;7.610;2023-03-23T15:50:51;11.65;;;5.90;;
9306;SDS011;4691;47.612;7.610;2023-03-23T15:53:33;14.15;;;6.00;;
9306;SDS011;4691;47.612;7.610;2023-03-23T15:55:59;20.88;;;7.95;;
9306;SDS011;4691;47.612;7.610;2023-03-23T15:58:25;61.28;;;24.83;;
9306;SDS011;4691;47.612;7.610;2023-03-23T16:00:51;12.63;;;5.90;;
9306;SDS011;4691;47.612;7.610;2023-03-23T16:03:19;9.35;;;5.32;;
9306;SDS011;4691;47.612;7.610;2023-03-23T16:05:45;13.38;;;4.00;;
9306;SDS011;4691;47.612;7.610;2023-03-23T16:08:10;9.20;;;4.22;;
9306;SDS011;4691;47.612;7.610;2023-03-23T16:10:36;7.15;;;4.10;;
9306;SDS011;4691;47.612;7.610;2023-03-23T16:13:01;5.83;;;3.70;;
9306;SDS011;4691;47.612;7.610;2023-03-23T16:15:26;12.95;;;4.97;;
9306;SDS011;4691;47.612;7.610;2023-03-23T16:17:52;9.43;;;5.55;;
9306;SDS011;4691;47.612;7.610;2023-03-23T16:20:18;8.17;;;5.10;;
9306;SDS011;4691;47.612;7.610;2023-03-23T16:22:43;8.98;;;4.97;;
9306;SDS011;4691;47.612;7.610;2023-03-23T16:25:09;7.32;;;4.80;;
9306;SDS011;4691;47.612;7.610;2023-03-23T16:27:35;8.43;;;4.13;;
9306;SDS011;4691;47.612;7.610;2023-03-23T16:30:01;8.07;;;4.20;;
9306;SDS011;4691;47.612;7.610;2023-03-23T16:32:27;6.28;;;4.00;;
9306;SDS011;4691;47.612;7.610;2023-03-23T16:34:53;7.25;;;4.32;;
9306;SDS011;4691;47.612;7.610;2023-03-23T16:37:18;12.63;;;4.80;;
9306;SDS011;4691;47.612;7.610;2023-03-23T16:39:43;7.07;;;3.88;;
9306;SDS011;4691;47.612;7.610;2023-03-23T16:42:08;8.17;;;4.63;;
9306;SDS011;4691;47.612;7.610;2023-03-23T16:44:33;7.83;;;4.27;;
9306;SDS011;4691;47.612;7.610;2023-03-23T16:46:59;12.60;;;4.63;;
9306;SDS011;4691;47.612;7.610;2023-03-23T16:49:24;7.70;;;4.35;;
9306;SDS011;4691;47.612;7.610;2023-03-23T16:51:49;9.52;;;4.25;;
9306;SDS011;4691;47.612;7.610;2023-03-23T16:54:14;10.60;;;4.70;;
9306;SDS011;4691;47.612;7.610;2023-03-23T16:56:40;8.98;;;4.70;;
9306;SDS011;4691;47.612;7.610;2023-03-23T16:59:09;11.85;;;5.63;;
9306;SDS011;4691;47.612;7.610;2023-03-23T17:01:35;10.43;;;4.90;;